Time,TemperatureF,DewpointF,PressureIn,WindDirection,WindDirectionDegrees,WindSpeedMPH,WindSpeedGustMPH,Humidity,HourlyPrecipIn,Conditions,Clouds,dailyrainin,SolarRadiationWatts/m^2,SoftwareType,DateUTC
2013-08-31 00:01:00,70.1,67.0,30.01,SW,219,0.0,0.0,90,0.00,,,0.00,0,Wunderground v.1.15,2013-08-31 04:01:00,
2013-08-31 00:02:00,69.8,66.7,30.01,SW,219,0.0,0.0,90,0.00,,,0.00,0,Wunderground v.1.15,2013-08-31 04:02:00,
2013-08-31 00:06:00,69.3,66.9,30.01,SW,219,0.0,0.0,92,0.00,,,0.00,0,Wunderground v.1.15,2013-08-31 04:06:00,
2013-08-31 00:09:00,69.5,67.1,30.01,SW,219,0.0,0.0,92,0.00,,,0.00,0,Wunderground v.1.15,2013-08-31 04:09:00,
2013-08-31 00:14:00,68.9,66.5,30.01,SW,219,0.0,0.0,92,0.00,,,0.00,0,Wunderground v.1.15,2013-08-31 04:14:00,
2013-08-31 00:16:00,68.7,66.3,30.01,SW,219,0.0,0.0,92,0.00,,,0.00,0,Wunderground v.1.15,2013-08-31 04:16:00,
2013-08-31 00:22:00,68.2,66.1,30.01,SW,219,0.0,0.0,93,0.00,,,0.00,0,Wunderground v.1.15,2013-08-31 04:22:00,
2013-08-31 00:27:00,68.0,66.2,30.01,SW,219,0.0,0.0,94,0.00,,,0.00,0,Wunderground v.1.15,2013-08-31 04:27:00,
2013-08-31 00:32:00,67.9,66.1,30.01,SW,219,0.0,0.0,94,0.00,,,0.00,0,Wunderground v.1.15,2013-08-31 04:32:00,
2013-08-31 00:38:00,68.2,66.4,30.01,SW,219,0.0,0.0,94,0.00,,,0.00,0,Wunderground v.1.15,2013-08-31 04:38:00,
2013-08-31 00:43:00,68.8,67.0,30.01,SW,219,0.0,0.0,94,0.00,,,0.00,0,Wunderground v.1.15,2013-08-31 04:43:00,
2013-08-31 00:48:00,68.8,66.7,30.01,SW,219,0.0,0.0,93,0.00,,,0.00,0,Wunderground v.1.15,2013-08-31 04:48:00,
2013-08-31 00:54:00,68.1,66.0,30.01,SW,219,0.0,0.0,93,0.00,,,0.00,0,Wunderground v.1.15,2013-08-31 04:54:00,
2013-08-31 00:59:00,67.9,66.1,30.00,SW,219,0.0,0.0,94,0.00,,,0.00,0,Wunderground v.1.15,2013-08-31 04:59:00,
2013-08-31 01:04:00,67.7,65.9,30.00,SW,219,0.0,0.0,94,0.00,,,0.00,0,Wunderground v.1.15,2013-08-31 05:04:00,
2013-08-31 01:10:00,67.8,66.0,30.01,SW,219,0.0,0.0,94,0.00,,,0.00,0,Wunderground v.1.15,2013-08-31 05:10:00,
2013-08-31 01:15:00,67.7,65.9,30.01,SW,219,0.0,0.0,94,0.00,,,0.00,0,Wunderground v.1.15,2013-08-31 05:15:00,
2013-08-31 01:20:00,67.6,66.1,30.01,SW,218,0.0,0.0,95,0.00,,,0.00,0,Wunderground v.1.15,2013-08-31 05:20:00,
2013-08-31 01:26:00,67.2,65.4,30.01,SW,221,0.0,0.0,94,0.00,,,0.00,0,Wunderground v.1.15,2013-08-31 05:26:00,
2013-08-31 01:31:00,67.2,65.7,30.01,SW,221,0.0,0.0,95,0.00,,,0.00,0,Wunderground v.1.15,2013-08-31 05:31:00,
2013-08-31 01:36:00,66.7,64.9,30.00,SW,221,0.0,0.0,94,0.00,,,0.00,0,Wunderground v.1.15,2013-08-31 05:36:00,
2013-08-31 01:41:00,66.9,65.7,30.00,SW,221,0.0,0.0,96,0.00,,,0.00,0,Wunderground v.1.15,2013-08-31 05:41:00,
2013-08-31 01:47:00,67.2,65.7,30.00,SW,221,0.0,0.0,95,0.00,,,0.00,0,Wunderground v.1.15,2013-08-31 05:47:00,
2013-08-31 01:52:00,67.1,65.6,30.00,SW,221,0.0,0.0,95,0.00,,,0.00,0,Wunderground v.1.15,2013-08-31 05:52:00,
2013-08-31 01:57:00,67.0,65.8,30.00,SW,221,0.0,0.0,96,0.00,,,0.00,0,Wunderground v.1.15,2013-08-31 05:57:00,
2013-08-31 02:02:00,67.0,65.8,30.00,SW,221,0.0,0.0,96,0.00,,,0.00,0,Wunderground v.1.15,2013-08-31 06:02:00,
2013-08-31 02:07:00,66.8,65.6,30.00,SW,221,0.0,0.0,96,0.00,,,0.00,0,Wunderground v.1.15,2013-08-31 06:07:00,
2013-08-31 02:12:00,66.6,65.4,30.00,SW,221,0.0,0.0,96,0.00,,,0.00,0,Wunderground v.1.15,2013-08-31 06:12:00,
2013-08-31 02:17:00,66.6,65.4,30.00,SW,221,0.0,1.0,96,0.00,,,0.00,0,Wunderground v.1.15,2013-08-31 06:17:00,
2013-08-31 02:22:00,66.6,65.7,30.00,SW,221,0.0,0.0,97,0.00,,,0.00,0,Wunderground v.1.15,2013-08-31 06:22:00,
2013-08-31 02:27:00,66.9,66.0,30.00,SW,221,0.0,0.0,97,0.00,,,0.00,0,Wunderground v.1.15,2013-08-31 06:27:00,
2013-08-31 02:32:00,67.1,65.9,30.00,SW,221,0.0,1.0,96,0.00,,,0.00,0,Wunderground v.1.15,2013-08-31 06:32:00,
2013-08-31 02:37:00,67.2,66.0,30.00,SW,221,0.0,1.0,96,0.00,,,0.00,0,Wunderground v.1.15,2013-08-31 06:37:00,
2013-08-31 02:42:00,67.3,66.1,30.00,SW,221,0.0,0.0,96,0.00,,,0.00,0,Wunderground v.1.15,2013-08-31 06:42:00,
2013-08-31 02:47:00,67.2,65.7,30.00,SW,220,0.0,0.0,95,0.00,,,0.00,0,Wunderground v.1.15,2013-08-31 06:47:00,
2013-08-31 02:52:00,67.2,66.0,30.00,SW,220,0.0,0.0,96,0.00,,,0.00,0,Wunderground v.1.15,2013-08-31 06:52:00,
2013-08-31 02:57:00,67.3,65.8,30.00,SW,220,0.0,0.0,95,0.00,,,0.00,0,Wunderground v.1.15,2013-08-31 06:57:00,
2013-08-31 03:02:00,67.0,65.5,30.00,NNW,327,0.0,0.0,95,0.00,,,0.00,0,Wunderground v.1.15,2013-08-31 07:02:00,
2013-08-31 03:07:00,66.9,65.7,29.99,NNW,327,0.0,0.0,96,0.00,,,0.00,0,Wunderground v.1.15,2013-08-31 07:07:00,
2013-08-31 03:12:00,66.2,64.7,29.99,NNW,327,0.0,0.0,95,0.00,,,0.00,0,Wunderground v.1.15,2013-08-31 07:12:00,
2013-08-31 03:17:00,66.1,64.9,29.99,NNW,327,0.0,0.0,96,0.00,,,0.00,0,Wunderground v.1.15,2013-08-31 07:17:00,
2013-08-31 03:22:00,65.6,64.4,29.99,NNW,327,0.0,0.0,96,0.00,,,0.00,0,Wunderground v.1.15,2013-08-31 07:22:00,
2013-08-31 03:27:00,65.8,64.9,29.99,NNW,327,0.0,0.0,97,0.00,,,0.00,0,Wunderground v.1.15,2013-08-31 07:27:00,
2013-08-31 03:32:00,65.7,64.8,29.99,NNW,327,0.0,0.0,97,0.00,,,0.00,0,Wunderground v.1.15,2013-08-31 07:32:00,
2013-08-31 03:38:00,65.7,64.8,29.99,NNW,327,0.0,0.0,97,0.00,,,0.00,0,Wunderground v.1.15,2013-08-31 07:38:00,
2013-08-31 03:43:00,65.8,64.9,29.99,NNW,327,0.0,0.0,97,0.00,,,0.00,0,Wunderground v.1.15,2013-08-31 07:43:00,
2013-08-31 03:48:00,66.0,65.1,29.99,NNW,327,0.0,0.0,97,0.00,,,0.00,0,Wunderground v.1.15,2013-08-31 07:48:00,
2013-08-31 03:53:00,65.5,64.3,29.98,NNW,327,0.0,0.0,96,0.00,,,0.00,0,Wunderground v.1.15,2013-08-31 07:53:00,
2013-08-31 03:58:00,65.4,64.5,29.99,NNW,327,0.0,0.0,97,0.00,,,0.00,0,Wunderground v.1.15,2013-08-31 07:58:00,
2013-08-31 04:03:00,65.5,64.6,29.99,NNW,327,0.0,0.0,97,0.00,,,0.00,0,Wunderground v.1.15,2013-08-31 08:03:00,
2013-08-31 04:08:00,65.6,64.7,29.98,NNW,327,0.0,0.0,97,0.00,,,0.00,0,Wunderground v.1.15,2013-08-31 08:08:00,
2013-08-31 04:13:00,65.7,64.8,29.99,NNW,327,0.0,0.0,97,0.00,,,0.00,0,Wunderground v.1.15,2013-08-31 08:13:00,
2013-08-31 04:18:00,65.8,64.9,29.99,NNW,327,0.0,0.0,97,0.00,,,0.00,0,Wunderground v.1.15,2013-08-31 08:18:00,
2013-08-31 04:23:00,65.9,65.0,29.98,NNW,327,0.0,0.0,97,0.00,,,0.00,0,Wunderground v.1.15,2013-08-31 08:23:00,
2013-08-31 04:28:00,66.0,65.1,29.99,NNW,327,0.0,0.0,97,0.00,,,0.00,0,Wunderground v.1.15,2013-08-31 08:28:00,
2013-08-31 04:33:00,66.0,65.1,29.99,NNW,327,0.0,0.0,97,0.00,,,0.00,0,Wunderground v.1.15,2013-08-31 08:33:00,
2013-08-31 04:39:00,66.2,65.3,29.99,NNW,327,0.0,0.0,97,0.00,,,0.00,0,Wunderground v.1.15,2013-08-31 08:39:00,
2013-08-31 04:44:00,66.0,65.1,29.98,NNW,327,0.0,0.0,97,0.00,,,0.00,0,Wunderground v.1.15,2013-08-31 08:44:00,
2013-08-31 04:49:00,65.9,64.7,29.98,NNW,327,0.0,0.0,96,0.00,,,0.00,0,Wunderground v.1.15,2013-08-31 08:49:00,
2013-08-31 04:54:00,65.9,65.0,29.99,NNW,327,0.0,0.0,97,0.00,,,0.00,0,Wunderground v.1.15,2013-08-31 08:54:00,
2013-08-31 04:59:00,66.5,65.6,29.99,South,177,0.0,3.0,97,0.00,,,0.00,0,Wunderground v.1.15,2013-08-31 08:59:00,
2013-08-31 05:04:00,66.8,65.9,29.99,South,187,1.0,2.0,97,0.00,,,0.00,0,Wunderground v.1.15,2013-08-31 09:04:00,
2013-08-31 05:09:00,67.3,66.1,29.99,SSW,193,0.0,4.0,96,0.00,,,0.00,0,Wunderground v.1.15,2013-08-31 09:09:00,
2013-08-31 05:14:00,67.5,66.3,29.99,SSW,193,0.0,1.0,96,0.00,,,0.00,0,Wunderground v.1.15,2013-08-31 09:14:00,
2013-08-31 05:19:00,67.7,66.2,29.99,SSW,193,0.0,1.0,95,0.00,,,0.00,0,Wunderground v.1.15,2013-08-31 09:19:00,
2013-08-31 05:24:00,67.7,66.2,29.99,SSW,193,0.0,2.0,95,0.00,,,0.00,0,Wunderground v.1.15,2013-08-31 09:24:00,
2013-08-31 05:29:00,68.0,66.5,29.99,SSW,205,1.0,3.0,95,0.00,,,0.00,0,Wunderground v.1.15,2013-08-31 09:29:00,
2013-08-31 05:34:00,68.3,66.5,29.99,SSW,205,0.0,2.0,94,0.00,,,0.00,0,Wunderground v.1.15,2013-08-31 09:34:00,
2013-08-31 05:39:00,68.2,66.4,29.99,SSW,205,1.0,2.0,94,0.00,,,0.00,0,Wunderground v.1.15,2013-08-31 09:39:00,
2013-08-31 05:44:00,68.2,66.4,29.99,SSW,205,0.0,1.0,94,0.00,,,0.00,0,Wunderground v.1.15,2013-08-31 09:44:00,
2013-08-31 05:49:00,67.9,66.1,29.99,SSW,205,1.0,1.0,94,0.00,,,0.00,0,Wunderground v.1.15,2013-08-31 09:49:00,
2013-08-31 05:54:00,67.7,65.9,29.99,SSW,205,0.0,0.0,94,0.00,,,0.00,0,Wunderground v.1.15,2013-08-31 09:54:00,
2013-08-31 05:59:00,67.2,65.4,29.99,SSW,205,0.0,0.0,94,0.00,,,0.00,0,Wunderground v.1.15,2013-08-31 09:59:00,
2013-08-31 06:04:00,67.0,65.5,29.99,SSW,205,0.0,0.0,95,0.00,,,0.00,0,Wunderground v.1.15,2013-08-31 10:04:00,
2013-08-31 06:09:00,66.8,65.3,29.99,SSW,205,0.0,0.0,95,0.00,,,0.00,0,Wunderground v.1.15,2013-08-31 10:09:00,
2013-08-31 06:14:00,66.4,64.9,29.99,SSW,205,0.0,0.0,95,0.00,,,0.00,0,Wunderground v.1.15,2013-08-31 10:14:00,
2013-08-31 06:19:00,65.7,64.5,29.99,SSW,205,0.0,0.0,96,0.00,,,0.00,0,Wunderground v.1.15,2013-08-31 10:19:00,
2013-08-31 06:24:00,65.7,64.5,29.99,SSW,205,0.0,0.0,96,0.00,,,0.00,0,Wunderground v.1.15,2013-08-31 10:24:00,
2013-08-31 06:29:00,65.7,64.8,29.99,SSW,205,0.0,1.0,97,0.00,,,0.00,0,Wunderground v.1.15,2013-08-31 10:29:00,
2013-08-31 06:34:00,65.5,64.3,29.99,SSW,205,1.0,1.0,96,0.00,,,0.00,0,Wunderground v.1.15,2013-08-31 10:34:00,
2013-08-31 06:39:00,65.7,64.8,29.99,SSW,205,0.0,1.0,97,0.00,,,0.00,0,Wunderground v.1.15,2013-08-31 10:39:00,
2013-08-31 06:44:00,65.9,65.0,29.99,SSW,205,0.0,0.0,97,0.00,,,0.00,5,Wunderground v.1.15,2013-08-31 10:44:00,
2013-08-31 06:49:00,65.9,65.0,29.99,SSW,205,0.0,0.0,97,0.00,,,0.00,7,Wunderground v.1.15,2013-08-31 10:49:00,
2013-08-31 06:54:00,65.7,64.5,29.99,SSW,205,0.0,0.0,96,0.00,,,0.00,12,Wunderground v.1.15,2013-08-31 10:54:00,
2013-08-31 06:59:00,65.7,64.8,29.99,SSW,205,0.0,0.0,97,0.00,,,0.00,16,Wunderground v.1.15,2013-08-31 10:59:00,
2013-08-31 07:04:00,65.8,64.9,29.99,SSW,205,0.0,0.0,97,0.00,,,0.00,21,Wunderground v.1.15,2013-08-31 11:04:00,
2013-08-31 07:09:00,65.9,65.0,29.99,SSW,205,0.0,0.0,97,0.00,,,0.00,42,Wunderground v.1.15,2013-08-31 11:09:00,
2013-08-31 07:14:00,66.0,65.1,29.99,SSW,205,0.0,0.0,97,0.00,,,0.00,63,Wunderground v.1.15,2013-08-31 11:14:00,
2013-08-31 07:19:00,66.2,65.3,30.00,SSW,205,0.0,0.0,97,0.00,,,0.00,91,Wunderground v.1.15,2013-08-31 11:19:00,
2013-08-31 07:24:00,67.1,66.2,30.00,SSW,205,0.0,0.0,97,0.00,,,0.00,107,Wunderground v.1.15,2013-08-31 11:24:00,
2013-08-31 07:29:00,67.5,66.6,29.99,SSW,205,0.0,0.0,97,0.00,,,0.00,114,Wunderground v.1.15,2013-08-31 11:29:00,
2013-08-31 07:34:00,68.2,67.3,29.99,SSW,205,0.0,1.0,97,0.00,,,0.00,123,Wunderground v.1.15,2013-08-31 11:34:00,
2013-08-31 07:40:00,69.0,67.8,29.99,SSW,206,0.0,0.0,96,0.00,,,0.00,132,Wunderground v.1.15,2013-08-31 11:40:00,
2013-08-31 07:45:00,69.8,68.3,29.99,SSW,202,1.0,2.0,95,0.00,,,0.00,141,Wunderground v.1.15,2013-08-31 11:45:00,
2013-08-31 07:50:00,70.3,68.5,29.99,South,191,2.0,2.0,94,0.00,,,0.00,105,Wunderground v.1.15,2013-08-31 11:50:00,
2013-08-31 07:55:00,70.6,68.8,29.99,South,173,2.0,3.0,94,0.00,,,0.00,169,Wunderground v.1.15,2013-08-31 11:55:00,
2013-08-31 08:01:00,71.1,69.0,29.99,South,188,0.0,1.0,93,0.00,,,0.00,186,Wunderground v.1.15,2013-08-31 12:01:00,
2013-08-31 08:06:00,71.7,69.3,29.99,SSW,207,4.0,5.0,92,0.00,,,0.00,200,Wunderground v.1.15,2013-08-31 12:06:00,
2013-08-31 08:11:00,72.2,69.7,29.99,SSE,162,2.0,4.0,92,0.00,,,0.00,220,Wunderground v.1.15,2013-08-31 12:11:00,
2013-08-31 08:16:00,72.4,69.6,30.00,SSW,203,0.0,6.0,91,0.00,,,0.00,237,Wunderground v.1.15,2013-08-31 12:16:00,
2013-08-31 08:21:00,72.8,70.0,29.99,SSW,200,2.0,4.0,91,0.00,,,0.00,248,Wunderground v.1.15,2013-08-31 12:21:00,
2013-08-31 08:26:00,73.1,70.0,30.00,SSW,205,0.0,6.0,90,0.00,,,0.00,267,Wunderground v.1.15,2013-08-31 12:26:00,
2013-08-31 08:31:00,73.6,70.5,30.00,South,185,2.0,5.0,90,0.00,,,0.00,287,Wunderground v.1.15,2013-08-31 12:31:00,
2013-08-31 08:36:00,73.9,70.5,29.99,South,184,2.0,7.0,89,0.00,,,0.00,304,Wunderground v.1.15,2013-08-31 12:36:00,
2013-08-31 08:41:00,74.2,70.7,30.00,WNW,285,2.0,6.0,89,0.00,,,0.00,332,Wunderground v.1.15,2013-08-31 12:41:00,
2013-08-31 08:46:00,74.6,71.1,30.00,SSW,212,3.0,6.0,89,0.00,,,0.00,362,Wunderground v.1.15,2013-08-31 12:46:00,
2013-08-31 08:51:00,75.0,71.2,30.00,WNW,294,1.0,4.0,88,0.00,,,0.00,381,Wunderground v.1.15,2013-08-31 12:51:00,
2013-08-31 08:56:00,75.7,71.6,30.00,SW,236,3.0,5.0,87,0.00,,,0.00,406,Wunderground v.1.15,2013-08-31 12:56:00,
2013-08-31 09:02:00,76.1,71.9,30.00,West,275,0.0,3.0,87,0.00,,,0.00,420,Wunderground v.1.15,2013-08-31 13:02:00,
2013-08-31 09:07:00,76.5,72.0,30.00,South,188,3.0,4.0,86,0.00,,,0.00,445,Wunderground v.1.15,2013-08-31 13:07:00,
2013-08-31 09:12:00,76.4,71.9,30.00,West,261,5.0,5.0,86,0.00,,,0.00,454,Wunderground v.1.15,2013-08-31 13:12:00,
2013-08-31 09:17:00,76.5,71.7,30.00,SSW,212,7.0,8.0,85,0.00,,,0.00,468,Wunderground v.1.15,2013-08-31 13:17:00,
2013-08-31 09:22:00,76.9,71.7,30.00,SSW,196,0.0,11.0,84,0.00,,,0.00,478,Wunderground v.1.15,2013-08-31 13:22:00,
2013-08-31 09:27:00,77.3,71.7,30.00,SSW,197,4.0,11.0,83,0.00,,,0.00,494,Wunderground v.1.15,2013-08-31 13:27:00,
2013-08-31 09:32:00,77.6,72.4,30.00,SSW,209,2.0,6.0,84,0.00,,,0.00,510,Wunderground v.1.15,2013-08-31 13:32:00,
2013-08-31 09:37:00,78.1,72.5,30.00,South,175,1.0,7.0,83,0.00,,,0.00,522,Wunderground v.1.15,2013-08-31 13:37:00,
2013-08-31 09:42:00,78.7,72.7,30.00,WSW,237,1.0,6.0,82,0.00,,,0.00,543,Wunderground v.1.15,2013-08-31 13:42:00,
2013-08-31 09:47:00,78.7,72.4,30.01,South,171,0.0,7.0,81,0.00,,,0.00,148,Wunderground v.1.15,2013-08-31 13:47:00,
2013-08-31 09:52:00,79.1,73.1,30.01,SSW,200,5.0,7.0,82,0.00,,,0.00,153,Wunderground v.1.15,2013-08-31 13:52:00,
2013-08-31 09:57:00,79.4,72.7,30.01,SSW,207,1.0,7.0,80,0.00,,,0.00,156,Wunderground v.1.15,2013-08-31 13:57:00,
2013-08-31 10:02:00,79.6,72.1,30.01,South,178,0.0,7.0,78,0.00,,,0.00,163,Wunderground v.1.15,2013-08-31 14:02:00,
2013-08-31 10:07:00,80.3,72.8,30.01,SW,223,2.0,7.0,78,0.00,,,0.00,171,Wunderground v.1.15,2013-08-31 14:07:00,
2013-08-31 10:12:00,80.3,72.0,30.01,South,187,8.0,10.0,76,0.00,,,0.00,550,Wunderground v.1.15,2013-08-31 14:12:00,
2013-08-31 10:17:00,79.9,72.0,30.00,NW,309,5.0,10.0,77,0.00,,,0.00,622,Wunderground v.1.15,2013-08-31 14:17:00,
2013-08-31 10:22:00,80.2,71.9,30.00,SW,217,5.0,10.0,76,0.00,,,0.00,640,Wunderground v.1.15,2013-08-31 14:22:00,
2013-08-31 10:27:00,80.3,72.8,30.00,SSW,200,3.0,10.0,78,0.00,,,0.00,656,Wunderground v.1.15,2013-08-31 14:27:00,
2013-08-31 10:32:00,80.5,72.6,30.00,South,188,4.0,9.0,77,0.00,,,0.00,675,Wunderground v.1.15,2013-08-31 14:32:00,
2013-08-31 10:37:00,80.6,72.3,30.00,SSW,193,3.0,14.0,76,0.00,,,0.00,684,Wunderground v.1.15,2013-08-31 14:37:00,
2013-08-31 10:42:00,80.9,72.6,30.01,SW,232,7.0,8.0,76,0.00,,,0.00,687,Wunderground v.1.15,2013-08-31 14:42:00,
2013-08-31 10:47:00,81.1,72.4,30.00,West,279,5.0,8.0,75,0.00,,,0.00,687,Wunderground v.1.15,2013-08-31 14:47:00,
2013-08-31 10:52:00,81.4,73.1,30.01,NE,48,0.0,5.0,76,0.00,,,0.00,707,Wunderground v.1.15,2013-08-31 14:52:00,
2013-08-31 10:57:00,82.0,72.9,30.00,South,179,3.0,8.0,74,0.00,,,0.00,729,Wunderground v.1.15,2013-08-31 14:57:00,
2013-08-31 11:02:00,82.5,73.8,30.01,SW,219,9.0,10.0,75,0.00,,,0.00,731,Wunderground v.1.15,2013-08-31 15:02:00,
2013-08-31 11:07:00,82.3,73.2,30.00,SSW,195,1.0,10.0,74,0.00,,,0.00,747,Wunderground v.1.15,2013-08-31 15:07:00,
2013-08-31 11:12:00,82.7,73.2,30.00,South,175,4.0,7.0,73,0.00,,,0.00,752,Wunderground v.1.15,2013-08-31 15:12:00,
2013-08-31 11:17:00,83.0,73.9,30.00,SW,236,2.0,7.0,74,0.00,,,0.00,814,Wunderground v.1.15,2013-08-31 15:17:00,
2013-08-31 11:22:00,83.3,73.7,30.00,SSW,197,1.0,5.0,73,0.00,,,0.00,772,Wunderground v.1.15,2013-08-31 15:22:00,
2013-08-31 11:27:00,83.0,73.4,30.00,SSW,192,7.0,8.0,73,0.00,,,0.00,403,Wunderground v.1.15,2013-08-31 15:27:00,
2013-08-31 11:32:00,83.1,73.1,29.99,SW,232,2.0,6.0,72,0.00,,,0.00,468,Wunderground v.1.15,2013-08-31 15:32:00,
2013-08-31 11:37:00,82.8,73.3,30.00,SW,224,3.0,8.0,73,0.00,,,0.00,468,Wunderground v.1.15,2013-08-31 15:37:00,
2013-08-31 11:42:00,82.9,72.9,29.99,SW,217,4.0,9.0,72,0.00,,,0.00,786,Wunderground v.1.15,2013-08-31 15:42:00,
2013-08-31 11:47:00,83.6,74.0,29.99,South,170,0.0,9.0,73,0.00,,,0.00,798,Wunderground v.1.15,2013-08-31 15:47:00,
2013-08-31 11:52:00,83.9,72.6,29.99,SSW,200,7.0,10.0,69,0.00,,,0.00,780,Wunderground v.1.15,2013-08-31 15:52:00,
2013-08-31 11:57:00,83.7,72.9,29.99,SSW,192,4.0,10.0,70,0.00,,,0.00,742,Wunderground v.1.15,2013-08-31 15:57:00,
2013-08-31 12:02:00,84.0,73.2,29.99,SW,228,4.0,7.0,70,0.00,,,0.00,715,Wunderground v.1.15,2013-08-31 16:02:00,
2013-08-31 12:07:00,84.2,73.8,29.99,South,190,6.0,8.0,71,0.00,,,0.00,831,Wunderground v.1.15,2013-08-31 16:07:00,
2013-08-31 12:12:00,83.8,73.0,29.99,SSW,204,5.0,7.0,70,0.00,,,0.00,301,Wunderground v.1.15,2013-08-31 16:12:00,
2013-08-31 12:17:00,83.1,73.1,29.98,SW,215,3.0,7.0,72,0.00,,,0.00,301,Wunderground v.1.15,2013-08-31 16:17:00,
2013-08-31 12:22:00,83.0,72.6,29.98,SW,216,3.0,8.0,71,0.00,,,0.00,332,Wunderground v.1.15,2013-08-31 16:22:00,
2013-08-31 12:27:00,83.7,72.9,29.98,SW,219,7.0,9.0,70,0.00,,,0.00,332,Wunderground v.1.15,2013-08-31 16:27:00,
2013-08-31 12:33:00,84.3,73.0,29.98,South,175,8.0,13.0,69,0.00,,,0.00,918,Wunderground v.1.15,2013-08-31 16:33:00,
2013-08-31 12:38:00,85.6,74.3,29.98,SE,146,3.0,13.0,69,0.00,,,0.00,886,Wunderground v.1.15,2013-08-31 16:38:00,
2013-08-31 12:42:00,85.2,73.4,29.98,South,186,10.0,10.0,68,0.00,,,0.00,867,Wunderground v.1.15,2013-08-31 16:42:00,
2013-08-31 12:48:00,85.4,73.2,29.98,SSE,155,5.0,10.0,67,0.00,,,0.00,926,Wunderground v.1.15,2013-08-31 16:48:00,
2013-08-31 12:53:00,86.1,73.9,29.98,WSW,240,2.0,8.0,67,0.00,,,0.00,947,Wunderground v.1.15,2013-08-31 16:53:00,
2013-08-31 12:58:00,86.5,72.9,29.97,SSE,156,3.0,9.0,64,0.00,,,0.00,937,Wunderground v.1.15,2013-08-31 16:58:00,
2013-08-31 13:03:00,86.5,73.3,29.98,South,172,4.0,9.0,65,0.00,,,0.00,925,Wunderground v.1.15,2013-08-31 17:03:00,
2013-08-31 13:08:00,86.1,73.4,29.97,SSE,164,4.0,9.0,66,0.00,,,0.00,325,Wunderground v.1.15,2013-08-31 17:08:00,
2013-08-31 13:13:00,85.9,73.7,29.97,South,171,5.0,6.0,67,0.00,,,0.00,680,Wunderground v.1.15,2013-08-31 17:13:00,
2013-08-31 13:18:00,85.7,73.0,29.97,SSE,157,5.0,9.0,66,0.00,,,0.00,874,Wunderground v.1.15,2013-08-31 17:18:00,
2013-08-31 13:23:00,86.3,75.4,29.96,SSW,202,2.0,6.0,70,0.00,,,0.00,872,Wunderground v.1.15,2013-08-31 17:23:00,
2013-08-31 13:28:00,86.3,73.6,29.97,South,188,2.0,9.0,66,0.00,,,0.00,898,Wunderground v.1.15,2013-08-31 17:28:00,
2013-08-31 13:33:00,86.3,73.1,29.96,SSW,209,5.0,5.0,65,0.00,,,0.00,775,Wunderground v.1.15,2013-08-31 17:33:00,
2013-08-31 13:38:00,86.3,73.1,29.96,SW,226,3.0,8.0,65,0.00,,,0.00,837,Wunderground v.1.15,2013-08-31 17:38:00,
2013-08-31 13:43:00,86.1,73.4,29.97,SSW,192,7.0,8.0,66,0.00,,,0.00,406,Wunderground v.1.15,2013-08-31 17:43:00,
2013-08-31 13:48:00,85.3,72.6,29.97,SSW,210,6.0,10.0,66,0.00,,,0.00,515,Wunderground v.1.15,2013-08-31 17:48:00,
2013-08-31 13:53:00,85.5,72.8,29.96,South,180,1.0,5.0,66,0.00,,,0.00,777,Wunderground v.1.15,2013-08-31 17:53:00,
2013-08-31 13:58:00,85.6,72.5,29.96,SSE,162,3.0,9.0,65,0.00,,,0.00,352,Wunderground v.1.15,2013-08-31 17:58:00,
2013-08-31 14:03:00,85.5,72.8,29.96,SSE,152,5.0,11.0,66,0.00,,,0.00,360,Wunderground v.1.15,2013-08-31 18:03:00,
2013-08-31 14:08:00,86.5,74.2,29.96,SW,227,0.0,11.0,67,0.00,,,0.00,679,Wunderground v.1.15,2013-08-31 18:08:00,
2013-08-31 14:13:00,86.0,72.4,29.96,SSW,197,7.0,9.0,64,0.00,,,0.00,399,Wunderground v.1.15,2013-08-31 18:13:00,
2013-08-31 14:18:00,86.4,73.2,29.95,SSE,168,3.0,10.0,65,0.00,,,0.00,721,Wunderground v.1.15,2013-08-31 18:18:00,
2013-08-31 14:23:00,86.6,73.0,29.95,SW,226,5.0,12.0,64,0.00,,,0.00,294,Wunderground v.1.15,2013-08-31 18:23:00,
2013-08-31 14:28:00,86.8,72.7,29.95,SSE,154,5.0,12.0,63,0.00,,,0.00,824,Wunderground v.1.15,2013-08-31 18:28:00,
2013-08-31 14:33:00,87.1,73.4,29.95,South,190,2.0,9.0,64,0.00,,,0.00,747,Wunderground v.1.15,2013-08-31 18:33:00,
2013-08-31 14:38:00,87.2,73.1,29.94,SSW,198,5.0,10.0,63,0.00,,,0.00,770,Wunderground v.1.15,2013-08-31 18:38:00,
2013-08-31 14:43:00,87.4,72.3,29.94,South,187,3.0,9.0,61,0.00,,,0.00,770,Wunderground v.1.15,2013-08-31 18:43:00,
2013-08-31 14:48:00,87.9,73.3,29.94,South,185,3.0,9.0,62,0.00,,,0.00,738,Wunderground v.1.15,2013-08-31 18:48:00,
2013-08-31 14:53:00,88.6,72.9,29.94,South,190,5.0,7.0,60,0.00,,,0.00,744,Wunderground v.1.15,2013-08-31 18:53:00,
2013-08-31 14:58:00,87.2,72.6,29.94,SW,219,6.0,12.0,62,0.00,,,0.00,772,Wunderground v.1.15,2013-08-31 18:58:00,
2013-08-31 15:03:00,87.5,71.9,29.93,SSW,202,5.0,8.0,60,0.00,,,0.00,202,Wunderground v.1.15,2013-08-31 19:03:00,
2013-08-31 15:08:00,87.0,71.9,29.93,South,169,6.0,8.0,61,0.00,,,0.00,731,Wunderground v.1.15,2013-08-31 19:08:00,
2013-08-31 15:13:00,87.4,72.8,29.93,SE,144,2.0,7.0,62,0.00,,,0.00,223,Wunderground v.1.15,2013-08-31 19:13:00,
2013-08-31 15:18:00,87.9,72.8,29.93,SSW,200,3.0,7.0,61,0.00,,,0.00,733,Wunderground v.1.15,2013-08-31 19:18:00,
2013-08-31 15:23:00,87.8,74.1,29.93,SW,220,5.0,5.0,64,0.00,,,0.00,712,Wunderground v.1.15,2013-08-31 19:23:00,
2013-08-31 15:28:00,87.9,72.3,29.92,SSE,153,7.0,12.0,60,0.00,,,0.00,710,Wunderground v.1.15,2013-08-31 19:28:00,
2013-08-31 15:33:00,87.9,71.8,29.92,SSW,200,8.0,8.0,59,0.00,,,0.00,668,Wunderground v.1.15,2013-08-31 19:33:00,
2013-08-31 15:38:00,87.1,72.0,29.92,South,184,4.0,8.0,61,0.00,,,0.00,218,Wunderground v.1.15,2013-08-31 19:38:00,
2013-08-31 15:43:00,87.5,72.4,29.92,SSE,151,3.0,7.0,61,0.00,,,0.00,656,Wunderground v.1.15,2013-08-31 19:43:00,
2013-08-31 15:48:00,87.7,72.1,29.92,SSE,153,4.0,7.0,60,0.00,,,0.00,218,Wunderground v.1.15,2013-08-31 19:48:00,
2013-08-31 15:53:00,87.0,71.9,29.92,SSW,209,3.0,9.0,61,0.00,,,0.00,195,Wunderground v.1.15,2013-08-31 19:53:00,
2013-08-31 15:58:00,85.7,72.6,29.92,SSE,153,9.0,9.0,65,0.00,,,0.00,179,Wunderground v.1.15,2013-08-31 19:58:00,
2013-08-31 16:03:00,86.1,71.6,29.92,SSW,199,4.0,7.0,62,0.00,,,0.00,207,Wunderground v.1.15,2013-08-31 20:03:00,
2013-08-31 16:08:00,86.5,71.5,29.91,SSW,193,7.0,8.0,61,0.00,,,0.00,199,Wunderground v.1.15,2013-08-31 20:08:00,
2013-08-31 16:13:00,87.0,71.9,29.91,SSE,147,8.0,8.0,61,0.00,,,0.00,624,Wunderground v.1.15,2013-08-31 20:13:00,
2013-08-31 16:18:00,87.5,72.4,29.90,SSE,153,2.0,9.0,61,0.00,,,0.00,573,Wunderground v.1.15,2013-08-31 20:18:00,
2013-08-31 16:23:00,87.4,71.8,29.90,South,184,7.0,12.0,60,0.00,,,0.00,237,Wunderground v.1.15,2013-08-31 20:23:00,
2013-08-31 16:28:00,87.5,72.4,29.90,South,180,3.0,12.0,61,0.00,,,0.00,508,Wunderground v.1.15,2013-08-31 20:28:00,
2013-08-31 16:33:00,87.7,72.1,29.90,South,170,6.0,8.0,60,0.00,,,0.00,529,Wunderground v.1.15,2013-08-31 20:33:00,
2013-08-31 16:38:00,88.0,71.9,29.90,SSW,194,5.0,11.0,59,0.00,,,0.00,489,Wunderground v.1.15,2013-08-31 20:38:00,
2013-08-31 16:43:00,87.5,72.4,29.90,SSE,167,3.0,7.0,61,0.00,,,0.00,468,Wunderground v.1.15,2013-08-31 20:43:00,
2013-08-31 16:48:00,87.8,72.7,29.90,SSE,153,3.0,7.0,61,0.00,,,0.00,436,Wunderground v.1.15,2013-08-31 20:48:00,
2013-08-31 16:53:00,87.5,72.4,29.90,SSW,210,5.0,11.0,61,0.00,,,0.00,260,Wunderground v.1.15,2013-08-31 20:53:00,
2013-08-31 16:58:00,87.3,71.7,29.90,SW,230,6.0,11.0,60,0.00,,,0.00,281,Wunderground v.1.15,2013-08-31 20:58:00,
2013-08-31 17:03:00,86.8,71.2,29.90,SW,225,4.0,12.0,60,0.00,,,0.00,359,Wunderground v.1.15,2013-08-31 21:03:00,
2013-08-31 17:08:00,86.7,71.6,29.90,SSW,199,5.0,12.0,61,0.00,,,0.00,323,Wunderground v.1.15,2013-08-31 21:08:00,
2013-08-31 17:13:00,86.7,71.6,29.90,South,188,5.0,10.0,61,0.00,,,0.00,301,Wunderground v.1.15,2013-08-31 21:13:00,
2013-08-31 17:18:00,86.6,72.0,29.90,South,172,9.0,10.0,62,0.00,,,0.00,269,Wunderground v.1.15,2013-08-31 21:18:00,
2013-08-31 17:23:00,86.2,72.1,29.90,SSW,205,4.0,7.0,63,0.00,,,0.00,255,Wunderground v.1.15,2013-08-31 21:23:00,
2013-08-31 17:28:00,85.9,71.4,29.91,SSW,196,2.0,12.0,62,0.00,,,0.00,220,Wunderground v.1.15,2013-08-31 21:28:00,
2013-08-31 17:34:00,85.6,72.0,29.91,SW,217,4.0,5.0,64,0.00,,,0.00,171,Wunderground v.1.15,2013-08-31 21:34:00,
2013-08-31 17:39:00,85.1,72.0,29.92,South,175,2.0,7.0,65,0.00,,,0.00,88,Wunderground v.1.15,2013-08-31 21:39:00,
2013-08-31 17:44:00,84.5,71.4,29.91,South,186,1.0,8.0,65,0.00,,,0.00,76,Wunderground v.1.15,2013-08-31 21:44:00,
2013-08-31 17:49:00,84.5,71.4,29.91,South,177,2.0,8.0,65,0.00,,,0.00,77,Wunderground v.1.15,2013-08-31 21:49:00,
2013-08-31 17:54:00,84.3,71.2,29.91,South,188,4.0,7.0,65,0.00,,,0.00,83,Wunderground v.1.15,2013-08-31 21:54:00,
2013-08-31 17:59:00,83.7,71.6,29.91,SSW,194,1.0,7.0,67,0.00,,,0.00,86,Wunderground v.1.15,2013-08-31 21:59:00,
2013-08-31 18:04:00,83.1,71.9,29.91,SSW,196,2.0,4.0,69,0.00,,,0.00,86,Wunderground v.1.15,2013-08-31 22:04:00,
2013-08-31 18:09:00,82.7,72.3,29.91,SSW,206,1.0,4.0,71,0.00,,,0.00,81,Wunderground v.1.15,2013-08-31 22:09:00,
2013-08-31 18:14:00,82.6,72.7,29.91,SSW,203,1.0,4.0,72,0.00,,,0.00,74,Wunderground v.1.15,2013-08-31 22:14:00,
2013-08-31 18:19:00,82.4,73.3,29.92,West,263,0.0,4.0,74,0.00,,,0.00,69,Wunderground v.1.15,2013-08-31 22:19:00,
2013-08-31 18:24:00,82.0,72.5,29.92,SSW,208,0.0,3.0,73,0.00,,,0.00,60,Wunderground v.1.15,2013-08-31 22:24:00,
2013-08-31 18:29:00,82.1,72.6,29.92,SW,226,2.0,3.0,73,0.00,,,0.00,49,Wunderground v.1.15,2013-08-31 22:29:00,
2013-08-31 18:34:00,81.8,72.3,29.92,SSW,205,0.0,2.0,73,0.00,,,0.00,44,Wunderground v.1.15,2013-08-31 22:34:00,
2013-08-31 18:39:00,81.7,72.6,29.91,South,191,0.0,3.0,74,0.00,,,0.00,37,Wunderground v.1.15,2013-08-31 22:39:00,
2013-08-31 18:44:00,81.5,72.8,29.92,South,191,0.0,1.0,75,0.00,,,0.00,30,Wunderground v.1.15,2013-08-31 22:44:00,
2013-08-31 18:49:00,81.4,72.7,29.91,South,189,3.0,3.0,75,0.00,,,0.00,25,Wunderground v.1.15,2013-08-31 22:49:00,
2013-08-31 18:54:00,81.1,72.8,29.92,SSW,201,1.0,5.0,76,0.00,,,0.00,19,Wunderground v.1.15,2013-08-31 22:54:00,
2013-08-31 18:59:00,80.9,72.6,29.92,SSW,201,0.0,5.0,76,0.00,,,0.00,16,Wunderground v.1.15,2013-08-31 22:59:00,
2013-08-31 19:04:00,80.7,72.4,29.92,SSW,201,2.0,2.0,76,0.00,,,0.00,16,Wunderground v.1.15,2013-08-31 23:04:00,
2013-08-31 19:10:00,80.6,72.7,29.92,SSW,201,0.0,1.0,77,0.00,,,0.00,12,Wunderground v.1.15,2013-08-31 23:10:00,
2013-08-31 19:15:00,80.3,72.8,29.92,SSW,201,0.0,1.0,78,0.00,,,0.00,9,Wunderground v.1.15,2013-08-31 23:15:00,
2013-08-31 19:20:00,79.9,72.4,29.92,SSW,201,0.0,0.0,78,0.00,,,0.00,7,Wunderground v.1.15,2013-08-31 23:20:00,
2013-08-31 19:25:00,79.8,72.7,29.92,SSW,201,0.0,0.0,79,0.00,,,0.00,5,Wunderground v.1.15,2013-08-31 23:25:00,
2013-08-31 19:30:00,79.5,72.4,29.92,SSW,201,0.0,0.0,79,0.00,,,0.00,5,Wunderground v.1.15,2013-08-31 23:30:00,
2013-08-31 19:35:00,79.1,72.4,29.92,SSW,201,0.0,0.0,80,0.00,,,0.00,0,Wunderground v.1.15,2013-08-31 23:35:00,
2013-08-31 19:40:00,78.7,72.4,29.92,SSW,201,0.0,0.0,81,0.00,,,0.00,0,Wunderground v.1.15,2013-08-31 23:40:00,
2013-08-31 19:45:00,78.5,72.5,29.92,SSW,201,0.0,0.0,82,0.00,,,0.00,0,Wunderground v.1.15,2013-08-31 23:45:00,
2013-08-31 19:50:00,78.5,72.5,29.92,SSW,201,0.0,1.0,82,0.00,,,0.00,0,Wunderground v.1.15,2013-08-31 23:50:00,
2013-08-31 19:55:00,78.9,72.6,29.92,SSW,201,0.0,1.0,81,0.00,,,0.00,0,Wunderground v.1.15,2013-08-31 23:55:00,
2013-08-31 20:01:00,78.9,72.6,29.91,SSW,201,0.0,1.0,81,0.00,,,0.00,0,Wunderground v.1.15,2013-09-01 00:01:00,
2013-08-31 20:06:00,79.4,72.7,29.91,South,172,1.0,2.0,80,0.00,,,0.00,0,Wunderground v.1.15,2013-09-01 00:06:00,
2013-08-31 20:11:00,79.1,72.8,29.91,South,175,0.0,1.0,81,0.00,,,0.00,0,Wunderground v.1.15,2013-09-01 00:11:00,
2013-08-31 20:17:00,78.6,72.6,29.92,South,175,0.0,1.0,82,0.00,,,0.00,0,Wunderground v.1.15,2013-09-01 00:17:00,
2013-08-31 20:22:00,78.1,72.9,29.92,South,175,0.0,0.0,84,0.00,,,0.00,0,Wunderground v.1.15,2013-09-01 00:22:00,
2013-08-31 20:27:00,77.5,72.6,29.92,South,175,0.0,0.0,85,0.00,,,0.00,0,Wunderground v.1.15,2013-09-01 00:27:00,
2013-08-31 20:32:00,76.9,72.4,29.92,South,175,0.0,0.0,86,0.00,,,0.00,0,Wunderground v.1.15,2013-09-01 00:32:00,
2013-08-31 20:37:00,77.1,72.6,29.92,South,175,0.0,0.0,86,0.00,,,0.00,0,Wunderground v.1.15,2013-09-01 00:37:00,
2013-08-31 20:42:00,76.6,72.8,29.93,South,175,0.0,0.0,88,0.00,,,0.00,0,Wunderground v.1.15,2013-09-01 00:42:00,
2013-08-31 20:47:00,75.9,72.4,29.93,West,275,0.0,1.0,89,0.00,,,0.00,0,Wunderground v.1.15,2013-09-01 00:47:00,
2013-08-31 20:52:00,76.5,72.7,29.93,NW,310,1.0,2.0,88,0.00,,,0.00,0,Wunderground v.1.15,2013-09-01 00:52:00,
2013-08-31 20:57:00,77.3,72.8,29.94,South,180,0.0,2.0,86,0.00,,,0.00,0,Wunderground v.1.15,2013-09-01 00:57:00,
2013-08-31 21:02:00,77.9,73.0,29.94,South,191,0.0,0.0,85,0.00,,,0.00,0,Wunderground v.1.15,2013-09-01 01:02:00,
2013-08-31 21:07:00,76.9,72.7,29.94,South,191,0.0,0.0,87,0.00,,,0.00,0,Wunderground v.1.15,2013-09-01 01:07:00,
2013-08-31 21:12:00,76.3,72.5,29.94,South,191,0.0,0.0,88,0.00,,,0.00,0,Wunderground v.1.15,2013-09-01 01:12:00,
2013-08-31 21:17:00,76.5,72.7,29.94,South,191,0.0,1.0,88,0.00,,,0.00,0,Wunderground v.1.15,2013-09-01 01:17:00,
2013-08-31 21:22:00,77.1,72.9,29.94,South,191,0.0,0.0,87,0.00,,,0.00,0,Wunderground v.1.15,2013-09-01 01:22:00,
2013-08-31 21:27:00,77.3,72.8,29.94,South,191,0.0,0.0,86,0.00,,,0.00,0,Wunderground v.1.15,2013-09-01 01:27:00,
2013-08-31 21:32:00,76.9,72.7,29.94,South,191,0.0,0.0,87,0.00,,,0.00,0,Wunderground v.1.15,2013-09-01 01:32:00,
2013-08-31 21:37:00,76.2,72.7,29.94,South,191,0.0,0.0,89,0.00,,,0.00,0,Wunderground v.1.15,2013-09-01 01:37:00,
2013-08-31 21:42:00,76.1,72.6,29.95,SSW,196,0.0,0.0,89,0.00,,,0.00,0,Wunderground v.1.15,2013-09-01 01:42:00,
2013-08-31 21:47:00,76.1,72.6,29.95,WNW,296,1.0,3.0,89,0.00,,,0.00,0,Wunderground v.1.15,2013-09-01 01:47:00,
2013-08-31 21:52:00,76.2,72.4,29.95,WNW,296,0.0,0.0,88,0.00,,,0.00,0,Wunderground v.1.15,2013-09-01 01:52:00,
2013-08-31 21:57:00,76.6,72.1,29.95,WNW,296,0.0,0.0,86,0.00,,,0.00,0,Wunderground v.1.15,2013-09-01 01:57:00,
2013-08-31 22:02:00,76.6,72.1,29.95,WNW,296,0.0,0.0,86,0.00,,,0.00,0,Wunderground v.1.15,2013-09-01 02:02:00,
2013-08-31 22:07:00,76.3,72.1,29.95,WNW,296,0.0,0.0,87,0.00,,,0.00,0,Wunderground v.1.15,2013-09-01 02:07:00,
2013-08-31 22:12:00,75.8,72.3,29.96,WNW,296,0.0,0.0,89,0.00,,,0.00,0,Wunderground v.1.15,2013-09-01 02:12:00,
2013-08-31 22:17:00,75.5,72.0,29.96,WNW,296,0.0,0.0,89,0.00,,,0.00,0,Wunderground v.1.15,2013-09-01 02:17:00,
2013-08-31 22:22:00,75.7,72.2,29.95,WNW,296,0.0,0.0,89,0.00,,,0.00,0,Wunderground v.1.15,2013-09-01 02:22:00,
2013-08-31 22:27:00,75.5,72.0,29.95,WNW,296,0.0,0.0,89,0.00,,,0.00,0,Wunderground v.1.15,2013-09-01 02:27:00,
2013-08-31 22:32:00,75.3,72.2,29.95,WNW,296,0.0,0.0,90,0.00,,,0.00,0,Wunderground v.1.15,2013-09-01 02:32:00,
2013-08-31 22:37:00,75.3,71.8,29.95,WNW,296,0.0,0.0,89,0.00,,,0.00,0,Wunderground v.1.15,2013-09-01 02:37:00,
2013-08-31 22:42:00,74.9,72.1,29.95,WNW,296,0.0,0.0,91,0.00,,,0.00,0,Wunderground v.1.15,2013-09-01 02:42:00,
2013-08-31 22:47:00,74.4,71.9,29.95,WNW,296,0.0,0.0,92,0.00,,,0.00,0,Wunderground v.1.15,2013-09-01 02:47:00,
2013-08-31 22:52:00,74.0,71.8,29.94,WNW,296,0.0,0.0,93,0.00,,,0.00,0,Wunderground v.1.15,2013-09-01 02:52:00,
2013-08-31 22:57:00,74.0,71.8,29.94,WNW,296,0.0,0.0,93,0.00,,,0.00,0,Wunderground v.1.15,2013-09-01 02:57:00,
2013-08-31 23:02:00,73.7,71.9,29.94,WNW,296,0.0,0.0,94,0.00,,,0.00,0,Wunderground v.1.15,2013-09-01 03:02:00,
2013-08-31 23:07:00,73.3,71.5,29.94,WNW,296,0.0,0.0,94,0.00,,,0.00,0,Wunderground v.1.15,2013-09-01 03:07:00,
2013-08-31 23:12:00,73.3,71.5,29.94,WNW,296,0.0,0.0,94,0.00,,,0.00,0,Wunderground v.1.15,2013-09-01 03:12:00,
2013-08-31 23:17:00,72.8,71.0,29.94,WNW,296,0.0,0.0,94,0.00,,,0.00,0,Wunderground v.1.15,2013-09-01 03:17:00,
2013-08-31 23:22:00,72.5,71.0,29.94,WNW,296,0.0,0.0,95,0.00,,,0.00,0,Wunderground v.1.15,2013-09-01 03:22:00,
2013-08-31 23:27:00,72.3,70.8,29.94,WNW,296,0.0,0.0,95,0.00,,,0.00,0,Wunderground v.1.15,2013-09-01 03:27:00,
2013-08-31 23:32:00,72.2,71.0,29.94,WNW,296,0.0,0.0,96,0.00,,,0.00,0,Wunderground v.1.15,2013-09-01 03:32:00,
2013-08-31 23:37:00,72.1,70.6,29.94,WNW,296,0.0,1.0,95,0.00,,,0.00,0,Wunderground v.1.15,2013-09-01 03:37:00,
2013-08-31 23:42:00,72.1,70.6,29.94,WNW,296,0.0,0.0,95,0.00,,,0.00,0,Wunderground v.1.15,2013-09-01 03:42:00,
2013-08-31 23:47:00,72.1,70.6,29.94,WNW,296,0.0,0.0,95,0.00,,,0.00,0,Wunderground v.1.15,2013-09-01 03:47:00,
2013-08-31 23:52:00,71.7,70.2,29.93,WNW,296,0.0,0.0,95,0.00,,,0.00,0,Wunderground v.1.15,2013-09-01 03:52:00,
2013-08-31 23:58:00,71.6,70.4,29.93,WNW,296,0.0,1.0,96,0.00,,,0.00,0,Wunderground v.1.15,2013-09-01 03:58:00,